createdAt,value
2023-05-18T00:01:22.673Z,7.57
2023-05-18T00:03:49.464Z,7.59
2023-05-18T00:06:16.568Z,7.57
2023-05-18T00:08:43.255Z,7.67
2023-05-18T00:11:10.013Z,7.65
2023-05-18T00:13:36.761Z,7.52
2023-05-18T00:16:03.506Z,7.56
2023-05-18T00:18:30.166Z,7.66
2023-05-18T00:20:59.974Z,7.62
2023-05-18T00:23:30.107Z,7.35
2023-05-18T00:25:58.582Z,7.39
2023-05-18T00:31:00.722Z,7.53
2023-05-18T00:33:27.458Z,7.27
2023-05-18T00:35:54.214Z,7.19
2023-05-18T00:38:20.936Z,7.00
2023-05-18T00:40:47.638Z,7.14
2023-05-18T00:43:14.380Z,7.35
2023-05-18T00:45:41.383Z,7.25
2023-05-18T00:48:08.155Z,7.44
2023-05-18T00:50:35.223Z,7.21
2023-05-18T00:53:02.096Z,7.34
2023-05-18T00:55:29.188Z,7.29
2023-05-18T00:57:57.000Z,7.39
2023-05-18T01:00:24.493Z,7.11
2023-05-18T01:02:51.928Z,7.25
2023-05-18T01:05:20.363Z,7.25
2023-05-18T01:07:48.219Z,7.13
2023-05-18T01:10:17.503Z,7.22
2023-05-18T01:13:03.120Z,7.27
2023-05-18T01:15:34.251Z,6.85
2023-05-18T01:18:17.763Z,6.81
2023-05-18T01:20:47.524Z,6.86
2023-05-18T01:23:35.836Z,6.61
2023-05-18T01:26:24.986Z,6.85
2023-05-18T01:28:52.356Z,6.70
2023-05-18T01:31:19.517Z,6.84
2023-05-18T01:33:46.536Z,6.90
2023-05-18T01:36:13.526Z,6.64
2023-05-18T01:38:43.110Z,6.73
2023-05-18T01:41:23.126Z,6.57
2023-05-18T01:44:06.305Z,6.52
2023-05-18T01:46:58.752Z,6.22
2023-05-18T01:49:33.901Z,6.15
2023-05-18T01:52:14.048Z,6.36
2023-05-18T01:54:44.720Z,6.23
2023-05-18T01:57:12.005Z,6.46
2023-05-18T01:59:39.097Z,6.19
2023-05-18T02:02:06.506Z,6.31
2023-05-18T02:04:33.273Z,6.27
2023-05-18T02:09:32.479Z,6.17
2023-05-18T02:14:37.515Z,6.50
2023-05-18T02:17:07.272Z,6.22
2023-05-18T02:19:38.387Z,6.23
2023-05-18T02:22:07.175Z,6.26
2023-05-18T02:24:34.506Z,6.40
2023-05-18T02:27:01.672Z,6.44
2023-05-18T02:29:28.425Z,6.23
2023-05-18T02:31:55.134Z,6.08
2023-05-18T02:34:23.093Z,5.92
2023-05-18T02:36:49.900Z,5.98
2023-05-18T02:39:16.756Z,5.97
2023-05-18T02:41:43.458Z,5.76
2023-05-18T02:46:50.222Z,5.81
2023-05-18T02:49:16.920Z,5.89
2023-05-18T02:51:43.615Z,5.79
2023-05-18T02:54:10.290Z,5.88
2023-05-18T02:56:36.953Z,5.88
2023-05-18T02:59:04.145Z,5.97
2023-05-18T03:01:31.135Z,5.73
2023-05-18T03:03:58.008Z,5.81
2023-05-18T03:06:26.921Z,5.89
2023-05-18T03:08:54.831Z,5.72
2023-05-18T03:11:22.959Z,5.75
2023-05-18T03:16:22.223Z,5.68
2023-05-18T03:18:49.395Z,5.54
2023-05-18T03:21:16.821Z,5.75
2023-05-18T03:23:43.568Z,5.60
2023-05-18T03:26:11.905Z,5.71
2023-05-18T03:28:39.529Z,5.51
2023-05-18T03:31:06.414Z,5.91
2023-05-18T03:33:33.410Z,5.63
2023-05-18T03:36:04.802Z,5.51
2023-05-18T03:38:31.827Z,5.53
2023-05-18T03:40:58.723Z,5.71
2023-05-18T03:43:26.155Z,5.51
2023-05-18T03:45:53.780Z,5.43
2023-05-18T03:48:21.898Z,5.57
2023-05-18T03:50:49.015Z,5.48
2023-05-18T03:53:19.515Z,5.42
2023-05-18T03:55:46.402Z,5.58
2023-05-18T03:58:13.112Z,5.56
2023-05-18T04:00:39.861Z,5.56
2023-05-18T04:03:06.744Z,5.56
2023-05-18T04:05:34.115Z,5.52
2023-05-18T04:08:01.074Z,5.47
2023-05-18T04:10:27.921Z,5.71
2023-05-18T04:15:33.927Z,5.69
2023-05-18T04:18:02.292Z,5.64
2023-05-18T04:20:30.070Z,5.61
2023-05-18T04:22:57.730Z,5.61
2023-05-18T04:25:30.425Z,5.59
2023-05-18T04:27:57.632Z,5.59
2023-05-18T04:30:27.321Z,5.76
2023-05-18T04:32:54.896Z,5.53
2023-05-18T04:35:21.773Z,5.68
2023-05-18T04:37:48.540Z,5.80
2023-05-18T04:42:55.203Z,5.73
2023-05-18T04:47:59.784Z,5.82
2023-05-18T04:50:26.581Z,5.90
2023-05-18T04:52:54.002Z,6.02
2023-05-18T04:55:29.493Z,6.07
2023-05-18T04:57:57.462Z,6.16
2023-05-18T05:00:26.548Z,6.36
2023-05-18T05:05:27.561Z,6.41
2023-05-18T05:07:55.900Z,6.48
2023-05-18T05:10:22.761Z,6.52
2023-05-18T05:12:50.744Z,6.64
2023-05-18T05:15:18.652Z,6.73
2023-05-18T05:17:47.339Z,7.24
2023-05-18T05:20:14.229Z,7.57
2023-05-18T05:22:41.100Z,7.95
2023-05-18T05:25:08.226Z,8.19
2023-05-18T05:27:35.235Z,8.48
2023-05-18T05:30:02.020Z,8.58
2023-05-18T05:32:28.782Z,8.70
2023-05-18T05:34:55.474Z,9.01
2023-05-18T05:37:22.299Z,8.93
2023-05-18T05:39:49.086Z,9.24
2023-05-18T05:44:49.120Z,9.17
2023-05-18T05:47:15.874Z,9.06
2023-05-18T05:49:42.663Z,9.21
2023-05-18T05:52:09.480Z,9.32
2023-05-18T05:54:36.236Z,9.52
2023-05-18T05:57:04.116Z,9.63
2023-05-18T05:59:30.801Z,9.89
2023-05-18T06:01:57.658Z,9.98
2023-05-18T06:04:24.440Z,10.13
2023-05-18T06:09:22.704Z,10.26
2023-05-18T06:11:49.450Z,10.48
2023-05-18T06:14:16.178Z,10.64
2023-05-18T06:16:43.241Z,10.92
2023-05-18T06:19:10.134Z,11.09
2023-05-18T06:21:36.895Z,11.08
2023-05-18T06:24:05.321Z,10.92
2023-05-18T06:26:32.635Z,10.95
2023-05-18T06:28:59.386Z,10.85
2023-05-18T06:31:27.331Z,11.07
2023-05-18T06:33:54.996Z,11.21
2023-05-18T06:36:21.760Z,11.37
2023-05-18T06:38:48.468Z,11.43
2023-05-18T06:41:15.212Z,11.71
2023-05-18T06:43:41.941Z,11.89
2023-05-18T06:46:08.696Z,12.14
2023-05-18T06:48:36.883Z,12.17
2023-05-18T06:51:03.768Z,12.26
2023-05-18T06:53:32.110Z,12.44
2023-05-18T06:55:58.829Z,12.62
2023-05-18T06:58:25.615Z,12.76
2023-05-18T07:00:52.419Z,12.86
2023-05-18T07:03:19.220Z,13.04
2023-05-18T07:05:45.960Z,13.02
2023-05-18T07:08:12.620Z,12.99
2023-05-18T07:10:39.459Z,13.24
2023-05-18T07:13:06.317Z,13.40
2023-05-18T07:15:33.509Z,13.26
2023-05-18T07:18:00.488Z,13.62
2023-05-18T07:20:27.268Z,13.68
2023-05-18T07:22:56.079Z,13.89
2023-05-18T07:25:23.674Z,13.89
2023-05-18T07:27:54.797Z,14.12
2023-05-18T07:30:22.672Z,14.05
2023-05-18T07:32:49.491Z,14.57
2023-05-18T07:35:17.208Z,14.20
2023-05-18T07:37:43.972Z,14.58
2023-05-18T07:40:11.108Z,14.55
2023-05-18T07:42:42.042Z,14.84
2023-05-18T07:45:09.528Z,14.98
2023-05-18T07:47:36.657Z,15.07
2023-05-18T07:50:03.668Z,15.30
2023-05-18T07:52:31.156Z,15.36
2023-05-18T07:54:57.984Z,15.29
2023-05-18T07:57:25.015Z,15.29
2023-05-18T07:59:52.095Z,15.45
2023-05-18T08:02:20.146Z,15.80
2023-05-18T08:04:48.358Z,15.52
2023-05-18T08:07:15.390Z,15.49
2023-05-18T08:09:42.152Z,15.67
2023-05-18T08:12:09.136Z,15.79
2023-05-18T08:14:36.302Z,15.80
2023-05-18T08:17:04.986Z,16.22
2023-05-18T08:19:31.931Z,16.37
2023-05-18T08:21:58.775Z,16.31
2023-05-18T08:24:25.526Z,16.29
2023-05-18T08:26:52.797Z,16.27
2023-05-18T08:29:19.650Z,16.42
2023-05-18T08:31:49.173Z,16.63
2023-05-18T08:34:16.458Z,16.45
2023-05-18T08:39:18.608Z,15.81
2023-05-18T08:41:51.963Z,16.17
2023-05-18T08:44:22.580Z,16.43
2023-05-18T08:46:53.160Z,16.34
2023-05-18T08:49:21.046Z,15.66
2023-05-18T08:52:00.808Z,15.80
2023-05-18T08:54:28.119Z,16.04
2023-05-18T08:56:54.898Z,16.24
2023-05-18T08:59:26.919Z,16.62
2023-05-18T09:01:55.323Z,17.02
2023-05-18T09:04:22.517Z,16.78
2023-05-18T09:06:50.169Z,16.69
2023-05-18T09:09:18.536Z,16.76
2023-05-18T09:11:47.283Z,17.16
2023-05-18T09:14:14.494Z,17.23
2023-05-18T09:16:43.691Z,17.65
2023-05-18T09:19:10.921Z,17.28
2023-05-18T09:21:39.984Z,17.04
2023-05-18T09:24:07.073Z,17.18
2023-05-18T09:26:33.886Z,17.13
2023-05-18T09:29:00.782Z,16.87
2023-05-18T09:31:27.970Z,16.74
2023-05-18T09:33:54.935Z,16.78
2023-05-18T09:36:26.447Z,17.02
2023-05-18T09:38:53.558Z,17.04
2023-05-18T09:41:20.548Z,17.36
2023-05-18T09:43:51.638Z,17.16
2023-05-18T09:46:21.350Z,17.39
2023-05-18T09:48:51.636Z,17.31
2023-05-18T09:51:18.900Z,17.52
2023-05-18T09:53:53.410Z,18.26
2023-05-18T09:56:20.276Z,18.53
2023-05-18T09:58:47.921Z,18.17
2023-05-18T10:01:14.789Z,18.12
2023-05-18T10:03:41.847Z,18.86
2023-05-18T10:06:10.786Z,18.81
2023-05-18T10:08:38.199Z,18.65
2023-05-18T10:11:05.969Z,18.67
2023-05-18T10:13:34.252Z,18.80
2023-05-18T10:16:07.808Z,19.03
2023-05-18T10:18:36.707Z,18.52
2023-05-18T10:21:06.150Z,18.54
2023-05-18T10:23:37.023Z,18.41
2023-05-18T10:26:07.924Z,18.14
2023-05-18T10:28:41.899Z,18.82
2023-05-18T10:31:09.096Z,18.74
2023-05-18T10:33:37.303Z,18.73
2023-05-18T10:36:06.043Z,18.64
2023-05-18T10:38:33.917Z,19.00
2023-05-18T10:41:01.672Z,19.43
2023-05-18T10:43:29.139Z,19.64
2023-05-18T10:46:02.124Z,19.74
2023-05-18T10:48:30.212Z,19.81
2023-05-18T10:50:58.343Z,19.97
2023-05-18T10:53:27.431Z,20.21
2023-05-18T10:55:54.694Z,20.14
2023-05-18T10:58:25.214Z,20.28
2023-05-18T11:00:57.455Z,19.80
2023-05-18T11:03:26.109Z,20.08
2023-05-18T11:06:09.255Z,20.21
2023-05-18T11:08:56.240Z,19.29
2023-05-18T11:11:28.508Z,19.10
2023-05-18T11:13:59.254Z,19.75
2023-05-18T11:16:35.071Z,19.71
2023-05-18T11:19:07.330Z,19.56
2023-05-18T11:21:37.118Z,19.84
2023-05-18T11:24:19.109Z,19.77
2023-05-18T11:26:51.340Z,19.78
2023-05-18T11:29:30.690Z,19.93
2023-05-18T11:31:57.978Z,19.95
2023-05-18T11:34:45.398Z,20.34
2023-05-18T11:37:16.310Z,20.62
2023-05-18T11:40:00.191Z,20.63
2023-05-18T11:42:33.177Z,20.47
2023-05-18T11:45:09.911Z,20.92
2023-05-18T11:47:37.338Z,20.81
2023-05-18T11:50:07.296Z,20.29
2023-05-18T11:52:44.896Z,19.97
2023-05-18T11:55:14.335Z,19.62
2023-05-18T11:57:44.169Z,19.98
2023-05-18T12:00:12.939Z,20.03
2023-05-18T12:05:15.430Z,20.79
2023-05-18T12:07:43.045Z,20.37
2023-05-18T12:10:28.696Z,19.83
2023-05-18T12:12:57.289Z,19.08
2023-05-18T12:15:25.205Z,18.58
2023-05-18T12:20:31.553Z,19.81
2023-05-18T12:22:58.495Z,19.95
2023-05-18T12:25:27.056Z,19.80
2023-05-18T12:27:55.104Z,19.91
2023-05-18T12:30:27.549Z,19.63
2023-05-18T12:35:29.514Z,19.85
2023-05-18T12:38:00.954Z,20.06
2023-05-18T12:40:34.450Z,19.99
2023-05-18T12:43:03.254Z,19.98
2023-05-18T12:45:33.234Z,19.77
2023-05-18T12:48:11.249Z,19.84
2023-05-18T12:50:47.110Z,20.21
2023-05-18T12:53:14.880Z,20.47
2023-05-18T12:55:41.832Z,19.35
2023-05-18T13:00:50.368Z,19.02
2023-05-18T13:03:24.639Z,19.23
2023-05-18T13:06:08.507Z,19.17
2023-05-18T13:08:36.801Z,19.70
2023-05-18T13:13:38.646Z,20.36
2023-05-18T13:16:05.774Z,20.32
2023-05-18T13:18:32.521Z,19.13
2023-05-18T13:20:59.281Z,19.23
2023-05-18T13:23:30.315Z,19.07
2023-05-18T13:25:58.896Z,19.31
2023-05-18T13:28:27.183Z,19.34
2023-05-18T13:30:53.984Z,19.86
2023-05-18T13:33:21.709Z,20.30
2023-05-18T13:35:50.108Z,20.27
2023-05-18T13:38:17.144Z,20.51
2023-05-18T13:40:44.176Z,19.92
2023-05-18T13:43:12.771Z,20.25
2023-05-18T13:45:41.281Z,20.07
2023-05-18T13:48:10.119Z,20.08
2023-05-18T13:50:37.903Z,20.06
2023-05-18T13:55:42.210Z,20.27
2023-05-18T13:58:09.873Z,20.26
2023-05-18T14:00:37.163Z,19.66
2023-05-18T14:03:04.371Z,18.89
2023-05-18T14:08:02.694Z,19.49
2023-05-18T14:10:29.642Z,18.91
2023-05-18T14:12:56.468Z,18.96
2023-05-18T14:15:23.224Z,18.82
2023-05-18T14:17:49.915Z,19.14
2023-05-18T14:20:16.695Z,18.95
2023-05-18T14:22:43.369Z,19.40
2023-05-18T14:25:10.162Z,19.72
2023-05-18T14:27:37.010Z,19.60
2023-05-18T14:30:04.107Z,19.33
2023-05-18T14:32:30.909Z,19.39
2023-05-18T14:34:58.727Z,19.20
2023-05-18T14:37:25.944Z,18.99
2023-05-18T14:39:52.756Z,19.29
2023-05-18T14:42:19.499Z,19.35
2023-05-18T14:44:47.027Z,19.55
2023-05-18T14:47:13.748Z,19.99
2023-05-18T14:49:40.665Z,20.06
2023-05-18T14:52:07.427Z,19.92
2023-05-18T14:54:34.172Z,19.91
2023-05-18T14:59:39.284Z,19.88
2023-05-18T15:02:08.308Z,19.81
2023-05-18T15:04:36.227Z,19.96
2023-05-18T15:07:03.299Z,20.11
2023-05-18T15:09:29.987Z,20.32
2023-05-18T15:11:56.783Z,19.67
2023-05-18T15:14:23.461Z,19.40
2023-05-18T15:16:50.204Z,19.30
2023-05-18T15:19:16.909Z,18.91
2023-05-18T15:21:45.092Z,18.78
2023-05-18T15:24:11.951Z,18.68
2023-05-18T15:26:38.747Z,18.72
2023-05-18T15:29:05.508Z,18.87
2023-05-18T15:31:33.171Z,18.68
2023-05-18T15:33:59.891Z,18.40
2023-05-18T15:36:26.606Z,18.34
2023-05-18T15:38:54.849Z,18.33
2023-05-18T15:41:22.295Z,18.26
2023-05-18T15:43:49.116Z,18.07
2023-05-18T15:46:15.901Z,18.08
2023-05-18T15:48:42.613Z,17.98
2023-05-18T15:51:09.378Z,18.08
2023-05-18T15:53:36.111Z,17.98
2023-05-18T15:56:02.928Z,17.85
2023-05-18T15:58:29.670Z,17.63
2023-05-18T16:00:57.210Z,17.57
2023-05-18T16:03:24.275Z,17.59
2023-05-18T16:05:51.220Z,17.62
2023-05-18T16:08:17.923Z,17.47
2023-05-18T16:10:44.641Z,17.51
2023-05-18T16:13:11.426Z,17.60
2023-05-18T16:15:38.183Z,17.62
2023-05-18T16:18:05.358Z,17.67
2023-05-18T16:20:32.618Z,17.70
2023-05-18T16:22:59.752Z,17.65
2023-05-18T16:25:26.642Z,17.74
2023-05-18T16:27:53.381Z,17.79
2023-05-18T16:30:20.092Z,17.80
2023-05-18T16:32:46.877Z,17.61
2023-05-18T16:35:13.582Z,17.52
2023-05-18T16:37:40.329Z,17.42
2023-05-18T16:40:08.435Z,17.55
2023-05-18T16:42:35.521Z,17.34
2023-05-18T16:45:02.615Z,17.48
2023-05-18T16:47:32.783Z,17.49
2023-05-18T16:50:00.244Z,17.47
2023-05-18T16:52:27.150Z,17.39
2023-05-18T16:54:53.898Z,17.36
2023-05-18T16:57:21.429Z,17.37
2023-05-18T16:59:48.244Z,17.18
2023-05-18T17:02:15.938Z,17.05
2023-05-18T17:04:44.688Z,17.08
2023-05-18T17:09:44.642Z,17.12
2023-05-18T17:12:12.310Z,17.11
2023-05-18T17:14:39.173Z,17.11
2023-05-18T17:17:06.384Z,17.18
2023-05-18T17:19:35.289Z,17.10
2023-05-18T17:22:03.113Z,16.97
2023-05-18T17:24:29.895Z,17.03
2023-05-18T17:26:56.615Z,16.90
2023-05-18T17:29:23.351Z,16.93
2023-05-18T17:31:50.135Z,16.90
2023-05-18T17:34:17.007Z,16.84
2023-05-18T17:36:44.922Z,16.97
2023-05-18T17:39:11.846Z,17.03
2023-05-18T17:41:38.664Z,16.84
2023-05-18T17:44:05.539Z,16.97
2023-05-18T17:46:32.526Z,16.88
2023-05-18T17:49:02.194Z,16.89
2023-05-18T17:51:28.927Z,16.92
2023-05-18T17:53:56.816Z,16.90
2023-05-18T17:56:25.051Z,16.83
2023-05-18T17:58:53.384Z,16.78
2023-05-18T18:01:20.320Z,16.76
2023-05-18T18:03:48.681Z,16.68
2023-05-18T18:06:15.547Z,16.59
2023-05-18T18:08:43.100Z,16.51
2023-05-18T18:11:09.885Z,16.56
2023-05-18T18:13:36.664Z,16.50
2023-05-18T18:16:03.579Z,16.51
2023-05-18T18:18:30.655Z,16.49
2023-05-18T18:20:57.463Z,16.48
2023-05-18T18:23:24.236Z,16.41
2023-05-18T18:25:50.968Z,16.35
2023-05-18T18:28:17.750Z,16.25
2023-05-18T18:30:44.994Z,16.17
2023-05-18T18:33:12.068Z,16.20
2023-05-18T18:35:38.969Z,16.28
2023-05-18T18:38:05.988Z,16.36
2023-05-18T18:40:34.392Z,16.43
2023-05-18T18:43:01.537Z,16.40
2023-05-18T18:45:30.245Z,16.22
2023-05-18T18:47:57.191Z,16.29
2023-05-18T18:50:24.661Z,16.29
2023-05-18T18:55:28.424Z,16.31
2023-05-18T18:57:55.830Z,16.19
2023-05-18T19:00:22.767Z,16.22
2023-05-18T19:02:49.860Z,16.12
2023-05-18T19:07:56.019Z,15.90
2023-05-18T19:10:23.269Z,15.96
2023-05-18T19:12:50.062Z,15.85
2023-05-18T19:15:16.913Z,15.77
2023-05-18T19:17:45.990Z,15.70
2023-05-18T19:20:13.184Z,15.70
2023-05-18T19:22:40.602Z,15.70
2023-05-18T19:25:07.489Z,15.58
2023-05-18T19:27:34.261Z,15.58
2023-05-18T19:30:02.849Z,15.46
2023-05-18T19:32:29.813Z,15.30
2023-05-18T19:34:56.616Z,15.30
2023-05-18T19:37:23.338Z,15.25
2023-05-18T19:39:50.173Z,15.14
2023-05-18T19:42:16.914Z,15.20
2023-05-18T19:44:43.637Z,15.06
2023-05-18T19:47:10.310Z,14.90
2023-05-18T19:49:37.107Z,14.83
2023-05-18T19:52:08.374Z,14.81
2023-05-18T19:54:38.656Z,14.58
2023-05-18T19:57:05.861Z,14.58
2023-05-18T19:59:32.663Z,14.60
2023-05-18T20:04:31.688Z,14.27
2023-05-18T20:06:59.473Z,14.25
2023-05-18T20:09:28.192Z,14.19
2023-05-18T20:11:56.319Z,14.24
2023-05-18T20:14:23.852Z,14.22
2023-05-18T20:16:52.669Z,14.24
2023-05-18T20:19:19.518Z,14.27
2023-05-18T20:21:48.734Z,14.32
2023-05-18T20:24:16.154Z,14.34
2023-05-18T20:26:43.041Z,14.45
2023-05-18T20:29:09.797Z,14.50
2023-05-18T20:31:36.504Z,14.47
2023-05-18T20:34:04.297Z,14.36
2023-05-18T20:36:31.041Z,14.39
2023-05-18T20:38:57.909Z,14.49
2023-05-18T20:43:57.516Z,14.46
2023-05-18T20:46:25.171Z,14.47
2023-05-18T20:48:57.738Z,14.40
2023-05-18T20:51:24.986Z,14.32
2023-05-18T20:53:52.012Z,14.39
2023-05-18T20:56:19.081Z,14.48
2023-05-18T20:58:48.976Z,14.46
2023-05-18T21:01:19.019Z,14.38
2023-05-18T21:03:46.152Z,14.30
2023-05-18T21:06:13.317Z,14.23
2023-05-18T21:08:40.973Z,14.33
2023-05-18T21:11:07.696Z,14.30
2023-05-18T21:13:37.077Z,14.35
2023-05-18T21:16:06.820Z,14.27
2023-05-18T21:18:34.719Z,14.24
2023-05-18T21:21:02.409Z,14.23
2023-05-18T21:23:29.101Z,14.23
2023-05-18T21:25:56.776Z,14.21
2023-05-18T21:28:25.217Z,14.19
2023-05-18T21:33:26.239Z,14.20
2023-05-18T21:35:53.059Z,14.21
2023-05-18T21:38:19.804Z,14.21
2023-05-18T21:40:47.019Z,14.24
2023-05-18T21:43:13.834Z,14.32
2023-05-18T21:45:40.830Z,14.22
2023-05-18T21:48:08.067Z,14.08
2023-05-18T21:50:35.483Z,14.02
2023-05-18T21:53:03.602Z,13.92
2023-05-18T21:55:33.428Z,13.85
2023-05-18T21:58:00.236Z,13.88
2023-05-18T22:00:27.305Z,13.81
2023-05-18T22:02:54.396Z,13.94
2023-05-18T22:05:21.218Z,13.78
2023-05-18T22:07:48.843Z,13.80
2023-05-18T22:10:15.708Z,13.78
2023-05-18T22:12:43.787Z,13.74
2023-05-18T22:15:11.085Z,13.85
2023-05-18T22:17:39.120Z,13.76
2023-05-18T22:20:09.899Z,13.81
2023-05-18T22:22:36.778Z,13.73
2023-05-18T22:25:03.543Z,13.68
2023-05-18T22:27:30.369Z,13.68
2023-05-18T22:29:57.565Z,13.66
2023-05-18T22:32:24.688Z,13.61
2023-05-18T22:34:52.143Z,13.67
2023-05-18T22:37:18.846Z,13.68
2023-05-18T22:39:45.748Z,13.65
2023-05-18T22:42:12.611Z,13.55
2023-05-18T22:44:39.350Z,13.53
2023-05-18T22:47:06.475Z,13.48
2023-05-18T22:49:36.019Z,13.53
2023-05-18T22:52:04.604Z,13.43
2023-05-18T22:54:31.541Z,13.47
2023-05-18T22:56:59.689Z,13.48
2023-05-18T23:07:04.328Z,13.53
2023-05-18T23:09:32.445Z,13.55
2023-05-18T23:12:01.372Z,13.53
2023-05-18T23:14:31.350Z,13.49
2023-05-18T23:17:01.282Z,13.63
2023-05-18T23:19:31.900Z,13.63
2023-05-18T23:21:58.609Z,13.67
2023-05-18T23:24:25.277Z,13.67
2023-05-18T23:26:52.035Z,13.60
2023-05-18T23:29:18.725Z,13.53
2023-05-18T23:31:45.611Z,13.50
2023-05-18T23:34:12.663Z,13.37
2023-05-18T23:36:42.955Z,13.15
2023-05-18T23:39:10.133Z,12.94
2023-05-18T23:41:37.846Z,12.87
2023-05-18T23:44:05.051Z,12.85
2023-05-18T23:46:32.080Z,12.81
2023-05-18T23:51:36.435Z,12.91
2023-05-18T23:54:07.357Z,12.79
2023-05-18T23:56:34.502Z,12.80
2023-05-18T23:59:02.083Z,12.73
